sensor_id;sensor_type;location;lat;lon;timestamp;P1;durP1;ratioP1;P2;durP2;ratioP2
35961;SDS011;22044;48.298;10.008;2022-12-01T00:01:35;35.63;;;21.73;;
35961;SDS011;22044;48.298;10.008;2022-12-01T00:04:21;39.20;;;22.63;;
35961;SDS011;22044;48.298;10.008;2022-12-01T00:07:08;38.17;;;22.77;;
35961;SDS011;22044;48.298;10.008;2022-12-01T00:09:53;34.53;;;21.23;;
35961;SDS011;22044;48.298;10.008;2022-12-01T00:12:57;35.10;;;22.43;;
35961;SDS011;22044;48.298;10.008;2022-12-01T00:15:45;33.30;;;20.60;;
35961;SDS011;22044;48.298;10.008;2022-12-01T00:18:31;35.87;;;21.07;;
35961;SDS011;22044;48.298;10.008;2022-12-01T00:21:18;37.30;;;21.67;;
35961;SDS011;22044;48.298;10.008;2022-12-01T00:24:05;36.60;;;22.10;;
35961;SDS011;22044;48.298;10.008;2022-12-01T00:26:51;38.67;;;22.23;;
35961;SDS011;22044;48.298;10.008;2022-12-01T00:29:37;34.40;;;20.87;;
35961;SDS011;22044;48.298;10.008;2022-12-01T00:32:24;34.70;;;22.57;;
35961;SDS011;22044;48.298;10.008;2022-12-01T00:35:10;35.70;;;21.77;;
35961;SDS011;22044;48.298;10.008;2022-12-01T00:37:56;39.50;;;22.67;;
35961;SDS011;22044;48.298;10.008;2022-12-01T00:40:42;36.23;;;22.03;;
35961;SDS011;22044;48.298;10.008;2022-12-01T00:43:27;40.00;;;22.77;;
35961;SDS011;22044;48.298;10.008;2022-12-01T00:46:13;36.83;;;22.40;;
35961;SDS011;22044;48.298;10.008;2022-12-01T00:49:00;35.93;;;21.33;;
35961;SDS011;22044;48.298;10.008;2022-12-01T00:51:46;38.37;;;22.63;;
35961;SDS011;22044;48.298;10.008;2022-12-01T00:54:32;36.07;;;22.00;;
35961;SDS011;22044;48.298;10.008;2022-12-01T00:57:17;39.47;;;22.00;;
35961;SDS011;22044;48.298;10.008;2022-12-01T01:00:03;38.50;;;22.53;;
35961;SDS011;22044;48.298;10.008;2022-12-01T01:02:50;37.00;;;22.97;;
35961;SDS011;22044;48.298;10.008;2022-12-01T01:05:37;37.80;;;21.93;;
35961;SDS011;22044;48.298;10.008;2022-12-01T01:08:24;37.20;;;22.20;;
35961;SDS011;22044;48.298;10.008;2022-12-01T01:11:10;37.10;;;21.87;;
35961;SDS011;22044;48.298;10.008;2022-12-01T01:13:57;36.17;;;21.50;;
35961;SDS011;22044;48.298;10.008;2022-12-01T01:16:43;37.40;;;22.97;;
35961;SDS011;22044;48.298;10.008;2022-12-01T01:19:29;34.63;;;21.87;;
35961;SDS011;22044;48.298;10.008;2022-12-01T01:22:16;37.77;;;22.57;;
35961;SDS011;22044;48.298;10.008;2022-12-01T01:25:02;40.53;;;23.53;;
35961;SDS011;22044;48.298;10.008;2022-12-01T01:27:48;43.30;;;23.80;;
35961;SDS011;22044;48.298;10.008;2022-12-01T01:30:37;38.97;;;22.63;;
35961;SDS011;22044;48.298;10.008;2022-12-01T01:33:23;43.03;;;24.03;;
35961;SDS011;22044;48.298;10.008;2022-12-01T01:36:10;41.43;;;24.37;;
35961;SDS011;22044;48.298;10.008;2022-12-01T01:38:57;41.47;;;23.53;;
35961;SDS011;22044;48.298;10.008;2022-12-01T01:41:44;39.33;;;23.87;;
35961;SDS011;22044;48.298;10.008;2022-12-01T01:44:47;43.30;;;24.20;;
35961;SDS011;22044;48.298;10.008;2022-12-01T01:47:34;42.60;;;24.37;;
35961;SDS011;22044;48.298;10.008;2022-12-01T01:50:23;38.93;;;23.67;;
35961;SDS011;22044;48.298;10.008;2022-12-01T01:53:11;42.70;;;23.77;;
35961;SDS011;22044;48.298;10.008;2022-12-01T01:56:00;41.40;;;23.53;;
35961;SDS011;22044;48.298;10.008;2022-12-01T01:58:47;39.07;;;24.10;;
35961;SDS011;22044;48.298;10.008;2022-12-01T02:01:34;42.30;;;23.57;;
35961;SDS011;22044;48.298;10.008;2022-12-01T02:04:19;42.40;;;23.70;;
35961;SDS011;22044;48.298;10.008;2022-12-01T02:07:07;38.23;;;23.77;;
35961;SDS011;22044;48.298;10.008;2022-12-01T02:09:52;43.07;;;25.67;;
35961;SDS011;22044;48.298;10.008;2022-12-01T02:12:48;47.77;;;25.13;;
35961;SDS011;22044;48.298;10.008;2022-12-01T02:15:43;47.00;;;25.47;;
35961;SDS011;22044;48.298;10.008;2022-12-01T02:18:36;46.40;;;26.97;;
35961;SDS011;22044;48.298;10.008;2022-12-01T02:21:34;44.87;;;25.73;;
35961;SDS011;22044;48.298;10.008;2022-12-01T02:28:04;43.97;;;25.13;;
35961;SDS011;22044;48.298;10.008;2022-12-01T02:31:13;48.57;;;26.00;;
35961;SDS011;22044;48.298;10.008;2022-12-01T02:34:04;43.07;;;23.57;;
35961;SDS011;22044;48.298;10.008;2022-12-01T02:36:56;46.40;;;25.77;;
35961;SDS011;22044;48.298;10.008;2022-12-01T02:39:47;51.67;;;27.17;;
35961;SDS011;22044;48.298;10.008;2022-12-01T02:42:38;51.43;;;28.27;;
35961;SDS011;22044;48.298;10.008;2022-12-01T02:45:39;47.63;;;26.33;;
35961;SDS011;22044;48.298;10.008;2022-12-01T02:48:32;50.00;;;27.27;;
35961;SDS011;22044;48.298;10.008;2022-12-01T02:51:20;50.97;;;28.47;;
35961;SDS011;22044;48.298;10.008;2022-12-01T02:54:09;51.00;;;26.70;;
35961;SDS011;22044;48.298;10.008;2022-12-01T02:56:57;48.03;;;26.17;;
35961;SDS011;22044;48.298;10.008;2022-12-01T02:59:43;44.33;;;26.33;;
35961;SDS011;22044;48.298;10.008;2022-12-01T03:02:33;45.60;;;25.60;;
35961;SDS011;22044;48.298;10.008;2022-12-01T03:05:28;45.37;;;25.70;;
35961;SDS011;22044;48.298;10.008;2022-12-01T03:08:25;46.17;;;25.80;;
35961;SDS011;22044;48.298;10.008;2022-12-01T03:11:17;44.00;;;26.27;;
35961;SDS011;22044;48.298;10.008;2022-12-01T03:14:13;42.83;;;25.67;;
35961;SDS011;22044;48.298;10.008;2022-12-01T03:17:06;47.40;;;25.83;;
35961;SDS011;22044;48.298;10.008;2022-12-01T03:19:56;43.63;;;26.30;;
35961;SDS011;22044;48.298;10.008;2022-12-01T03:22:53;48.20;;;26.47;;
35961;SDS011;22044;48.298;10.008;2022-12-01T03:25:44;46.43;;;26.93;;
35961;SDS011;22044;48.298;10.008;2022-12-01T03:28:33;47.50;;;27.33;;
35961;SDS011;22044;48.298;10.008;2022-12-01T03:31:25;48.43;;;27.53;;
35961;SDS011;22044;48.298;10.008;2022-12-01T03:34:15;44.73;;;24.53;;
35961;SDS011;22044;48.298;10.008;2022-12-01T03:37:06;43.10;;;24.63;;
35961;SDS011;22044;48.298;10.008;2022-12-01T03:39:58;42.93;;;25.53;;
35961;SDS011;22044;48.298;10.008;2022-12-01T03:42:50;44.67;;;26.83;;
35961;SDS011;22044;48.298;10.008;2022-12-01T03:45:40;45.00;;;24.73;;
35961;SDS011;22044;48.298;10.008;2022-12-01T03:48:32;43.73;;;25.67;;
35961;SDS011;22044;48.298;10.008;2022-12-01T03:51:20;44.03;;;26.57;;
35961;SDS011;22044;48.298;10.008;2022-12-01T03:54:15;43.37;;;26.20;;
35961;SDS011;22044;48.298;10.008;2022-12-01T03:57:07;43.93;;;26.13;;
35961;SDS011;22044;48.298;10.008;2022-12-01T03:59:55;43.50;;;25.80;;
35961;SDS011;22044;48.298;10.008;2022-12-01T04:02:41;45.73;;;27.00;;
35961;SDS011;22044;48.298;10.008;2022-12-01T04:05:29;44.30;;;26.53;;
35961;SDS011;22044;48.298;10.008;2022-12-01T04:08:16;47.13;;;26.27;;
35961;SDS011;22044;48.298;10.008;2022-12-01T04:11:02;47.60;;;27.47;;
35961;SDS011;22044;48.298;10.008;2022-12-01T04:14:09;45.07;;;25.50;;
35961;SDS011;22044;48.298;10.008;2022-12-01T04:16:54;46.73;;;27.93;;
35961;SDS011;22044;48.298;10.008;2022-12-01T04:19:39;49.23;;;27.80;;
35961;SDS011;22044;48.298;10.008;2022-12-01T04:22:25;49.47;;;27.50;;
35961;SDS011;22044;48.298;10.008;2022-12-01T04:25:11;51.80;;;27.57;;
35961;SDS011;22044;48.298;10.008;2022-12-01T04:27:57;48.70;;;26.80;;
35961;SDS011;22044;48.298;10.008;2022-12-01T04:30:44;46.90;;;27.77;;
35961;SDS011;22044;48.298;10.008;2022-12-01T04:33:31;50.97;;;28.17;;
35961;SDS011;22044;48.298;10.008;2022-12-01T04:36:16;48.20;;;28.47;;
35961;SDS011;22044;48.298;10.008;2022-12-01T04:39:02;53.03;;;27.77;;
35961;SDS011;22044;48.298;10.008;2022-12-01T04:41:47;48.80;;;28.70;;
35961;SDS011;22044;48.298;10.008;2022-12-01T04:44:34;48.97;;;27.93;;
35961;SDS011;22044;48.298;10.008;2022-12-01T04:47:21;47.57;;;27.63;;
35961;SDS011;22044;48.298;10.008;2022-12-01T04:50:07;48.17;;;25.70;;
35961;SDS011;22044;48.298;10.008;2022-12-01T04:52:54;48.80;;;28.50;;
35961;SDS011;22044;48.298;10.008;2022-12-01T04:55:39;46.27;;;26.70;;
35961;SDS011;22044;48.298;10.008;2022-12-01T04:58:25;46.60;;;26.60;;
35961;SDS011;22044;48.298;10.008;2022-12-01T05:01:13;43.90;;;26.97;;
35961;SDS011;22044;48.298;10.008;2022-12-01T05:04:02;47.73;;;27.00;;
35961;SDS011;22044;48.298;10.008;2022-12-01T05:06:47;43.77;;;24.73;;
35961;SDS011;22044;48.298;10.008;2022-12-01T05:09:33;48.20;;;26.03;;
35961;SDS011;22044;48.298;10.008;2022-12-01T05:12:19;42.43;;;25.03;;
35961;SDS011;22044;48.298;10.008;2022-12-01T05:15:05;42.57;;;23.20;;
35961;SDS011;22044;48.298;10.008;2022-12-01T05:17:51;43.43;;;25.97;;
35961;SDS011;22044;48.298;10.008;2022-12-01T05:20:38;45.70;;;26.30;;
35961;SDS011;22044;48.298;10.008;2022-12-01T05:23:42;44.27;;;24.90;;
35961;SDS011;22044;48.298;10.008;2022-12-01T05:26:28;42.67;;;23.70;;
35961;SDS011;22044;48.298;10.008;2022-12-01T05:29:14;45.50;;;25.13;;
35961;SDS011;22044;48.298;10.008;2022-12-01T05:31:59;43.07;;;24.30;;
35961;SDS011;22044;48.298;10.008;2022-12-01T05:34:45;46.37;;;25.33;;
35961;SDS011;22044;48.298;10.008;2022-12-01T05:37:32;42.63;;;24.40;;
35961;SDS011;22044;48.298;10.008;2022-12-01T05:40:18;43.53;;;24.97;;
35961;SDS011;22044;48.298;10.008;2022-12-01T05:43:04;40.40;;;23.67;;
35961;SDS011;22044;48.298;10.008;2022-12-01T05:45:50;42.37;;;24.23;;
35961;SDS011;22044;48.298;10.008;2022-12-01T05:48:35;44.40;;;25.53;;
35961;SDS011;22044;48.298;10.008;2022-12-01T05:51:21;47.10;;;25.70;;
35961;SDS011;22044;48.298;10.008;2022-12-01T05:54:08;48.27;;;25.33;;
35961;SDS011;22044;48.298;10.008;2022-12-01T05:56:54;45.13;;;25.13;;
35961;SDS011;22044;48.298;10.008;2022-12-01T05:59:39;41.87;;;24.83;;
35961;SDS011;22044;48.298;10.008;2022-12-01T06:02:25;46.57;;;24.97;;
35961;SDS011;22044;48.298;10.008;2022-12-01T06:05:10;41.47;;;25.10;;
35961;SDS011;22044;48.298;10.008;2022-12-01T06:07:56;45.93;;;25.57;;
35961;SDS011;22044;48.298;10.008;2022-12-01T06:10:43;39.87;;;23.73;;
35961;SDS011;22044;48.298;10.008;2022-12-01T06:13:29;44.07;;;24.93;;
35961;SDS011;22044;48.298;10.008;2022-12-01T06:16:15;46.17;;;24.97;;
35961;SDS011;22044;48.298;10.008;2022-12-01T06:19:00;45.97;;;24.33;;
35961;SDS011;22044;48.298;10.008;2022-12-01T06:21:46;43.80;;;24.17;;
35961;SDS011;22044;48.298;10.008;2022-12-01T06:24:31;47.07;;;26.33;;
35961;SDS011;22044;48.298;10.008;2022-12-01T06:27:18;41.27;;;23.27;;
35961;SDS011;22044;48.298;10.008;2022-12-01T06:30:04;41.07;;;24.17;;
35961;SDS011;22044;48.298;10.008;2022-12-01T06:32:51;46.17;;;25.77;;
35961;SDS011;22044;48.298;10.008;2022-12-01T06:35:37;39.50;;;23.03;;
35961;SDS011;22044;48.298;10.008;2022-12-01T06:38:22;44.23;;;24.13;;
35961;SDS011;22044;48.298;10.008;2022-12-01T06:41:08;39.33;;;22.07;;
35961;SDS011;22044;48.298;10.008;2022-12-01T06:43:55;40.50;;;23.67;;
35961;SDS011;22044;48.298;10.008;2022-12-01T06:46:41;42.87;;;23.37;;
35961;SDS011;22044;48.298;10.008;2022-12-01T06:49:26;40.50;;;23.87;;
35961;SDS011;22044;48.298;10.008;2022-12-01T06:52:12;38.13;;;23.00;;
35961;SDS011;22044;48.298;10.008;2022-12-01T06:54:57;42.30;;;24.40;;
35961;SDS011;22044;48.298;10.008;2022-12-01T06:57:43;42.57;;;24.53;;
35961;SDS011;22044;48.298;10.008;2022-12-01T07:00:30;43.50;;;24.60;;
35961;SDS011;22044;48.298;10.008;2022-12-01T07:03:16;44.67;;;25.07;;
35961;SDS011;22044;48.298;10.008;2022-12-01T07:06:01;44.37;;;25.23;;
35961;SDS011;22044;48.298;10.008;2022-12-01T07:08:47;43.27;;;24.13;;
35961;SDS011;22044;48.298;10.008;2022-12-01T07:11:33;43.57;;;24.53;;
35961;SDS011;22044;48.298;10.008;2022-12-01T07:14:21;41.00;;;24.67;;
35961;SDS011;22044;48.298;10.008;2022-12-01T07:17:09;42.43;;;24.07;;
35961;SDS011;22044;48.298;10.008;2022-12-01T07:19:54;49.67;;;23.83;;
35961;SDS011;22044;48.298;10.008;2022-12-01T07:22:40;44.20;;;25.27;;
35961;SDS011;22044;48.298;10.008;2022-12-01T07:25:26;39.90;;;23.07;;
35961;SDS011;22044;48.298;10.008;2022-12-01T07:28:11;39.70;;;23.33;;
35961;SDS011;22044;48.298;10.008;2022-12-01T07:31:01;43.87;;;25.17;;
35961;SDS011;22044;48.298;10.008;2022-12-01T07:33:49;42.70;;;25.07;;
35961;SDS011;22044;48.298;10.008;2022-12-01T07:36:36;41.20;;;24.40;;
35961;SDS011;22044;48.298;10.008;2022-12-01T07:39:21;43.07;;;25.10;;
35961;SDS011;22044;48.298;10.008;2022-12-01T07:42:07;43.67;;;24.57;;
35961;SDS011;22044;48.298;10.008;2022-12-01T07:44:52;43.90;;;24.63;;
35961;SDS011;22044;48.298;10.008;2022-12-01T07:47:38;44.67;;;25.13;;
35961;SDS011;22044;48.298;10.008;2022-12-01T07:50:25;42.43;;;24.77;;
35961;SDS011;22044;48.298;10.008;2022-12-01T07:53:10;48.03;;;27.07;;
35961;SDS011;22044;48.298;10.008;2022-12-01T07:55:56;45.53;;;26.00;;
35961;SDS011;22044;48.298;10.008;2022-12-01T07:58:42;45.27;;;26.57;;
35961;SDS011;22044;48.298;10.008;2022-12-01T08:01:28;45.77;;;26.13;;
35961;SDS011;22044;48.298;10.008;2022-12-01T08:04:14;45.33;;;25.27;;
35961;SDS011;22044;48.298;10.008;2022-12-01T08:07:01;48.43;;;25.40;;
35961;SDS011;22044;48.298;10.008;2022-12-01T08:09:46;44.17;;;25.63;;
35961;SDS011;22044;48.298;10.008;2022-12-01T08:12:32;48.10;;;27.30;;
35961;SDS011;22044;48.298;10.008;2022-12-01T08:15:17;43.37;;;26.47;;
35961;SDS011;22044;48.298;10.008;2022-12-01T08:18:03;47.30;;;26.93;;
35961;SDS011;22044;48.298;10.008;2022-12-01T08:20:48;42.90;;;24.50;;
35961;SDS011;22044;48.298;10.008;2022-12-01T08:23:35;44.57;;;25.70;;
35961;SDS011;22044;48.298;10.008;2022-12-01T08:26:21;48.93;;;26.23;;
35961;SDS011;22044;48.298;10.008;2022-12-01T08:29:08;48.10;;;26.60;;
35961;SDS011;22044;48.298;10.008;2022-12-01T08:31:55;51.13;;;27.87;;
35961;SDS011;22044;48.298;10.008;2022-12-01T08:34:41;44.87;;;25.83;;
35961;SDS011;22044;48.298;10.008;2022-12-01T08:37:27;50.27;;;26.70;;
35961;SDS011;22044;48.298;10.008;2022-12-01T08:40:14;45.33;;;25.53;;
35961;SDS011;22044;48.298;10.008;2022-12-01T08:43:00;46.23;;;26.33;;
35961;SDS011;22044;48.298;10.008;2022-12-01T08:45:45;49.57;;;27.50;;
35961;SDS011;22044;48.298;10.008;2022-12-01T08:48:31;52.13;;;26.80;;
35961;SDS011;22044;48.298;10.008;2022-12-01T08:51:19;47.20;;;27.27;;
35961;SDS011;22044;48.298;10.008;2022-12-01T08:54:05;47.67;;;25.87;;
35961;SDS011;22044;48.298;10.008;2022-12-01T08:56:52;46.67;;;25.60;;
35961;SDS011;22044;48.298;10.008;2022-12-01T08:59:37;53.70;;;27.47;;
35961;SDS011;22044;48.298;10.008;2022-12-01T09:02:23;48.17;;;26.33;;
35961;SDS011;22044;48.298;10.008;2022-12-01T09:05:09;48.47;;;25.63;;
35961;SDS011;22044;48.298;10.008;2022-12-01T09:07:54;47.60;;;25.80;;
35961;SDS011;22044;48.298;10.008;2022-12-01T09:10:55;44.60;;;25.20;;
35961;SDS011;22044;48.298;10.008;2022-12-01T09:13:42;46.07;;;25.80;;
35961;SDS011;22044;48.298;10.008;2022-12-01T09:16:29;51.67;;;27.10;;
35961;SDS011;22044;48.298;10.008;2022-12-01T09:19:16;44.70;;;24.47;;
35961;SDS011;22044;48.298;10.008;2022-12-01T09:22:02;48.03;;;24.43;;
35961;SDS011;22044;48.298;10.008;2022-12-01T09:24:48;50.57;;;25.70;;
35961;SDS011;22044;48.298;10.008;2022-12-01T09:27:33;49.23;;;25.17;;
35961;SDS011;22044;48.298;10.008;2022-12-01T09:30:20;47.40;;;25.17;;
35961;SDS011;22044;48.298;10.008;2022-12-01T09:33:06;39.70;;;24.03;;
35961;SDS011;22044;48.298;10.008;2022-12-01T09:35:51;45.30;;;23.80;;
35961;SDS011;22044;48.298;10.008;2022-12-01T09:38:37;46.97;;;24.70;;
35961;SDS011;22044;48.298;10.008;2022-12-01T09:41:25;43.50;;;23.97;;
35961;SDS011;22044;48.298;10.008;2022-12-01T09:44:13;50.43;;;25.83;;
35961;SDS011;22044;48.298;10.008;2022-12-01T09:47:15;50.03;;;24.83;;
35961;SDS011;22044;48.298;10.008;2022-12-01T09:50:06;44.27;;;24.33;;
35961;SDS011;22044;48.298;10.008;2022-12-01T09:52:57;45.23;;;24.37;;
35961;SDS011;22044;48.298;10.008;2022-12-01T09:55:46;44.53;;;24.77;;
35961;SDS011;22044;48.298;10.008;2022-12-01T09:58:33;49.93;;;25.97;;
35961;SDS011;22044;48.298;10.008;2022-12-01T10:01:19;46.23;;;24.40;;
35961;SDS011;22044;48.298;10.008;2022-12-01T10:04:10;46.57;;;25.20;;
35961;SDS011;22044;48.298;10.008;2022-12-01T10:07:01;45.23;;;24.00;;
35961;SDS011;22044;48.298;10.008;2022-12-01T10:09:50;44.17;;;25.07;;
35961;SDS011;22044;48.298;10.008;2022-12-01T10:12:39;45.27;;;25.13;;
35961;SDS011;22044;48.298;10.008;2022-12-01T10:15:30;48.50;;;24.17;;
35961;SDS011;22044;48.298;10.008;2022-12-01T10:18:27;51.20;;;26.93;;
35961;SDS011;22044;48.298;10.008;2022-12-01T10:21:26;45.47;;;25.40;;
35961;SDS011;22044;48.298;10.008;2022-12-01T10:24:27;52.13;;;26.33;;
35961;SDS011;22044;48.298;10.008;2022-12-01T10:27:26;49.23;;;25.50;;
35961;SDS011;22044;48.298;10.008;2022-12-01T10:30:19;45.97;;;24.90;;
35961;SDS011;22044;48.298;10.008;2022-12-01T10:33:08;47.57;;;26.20;;
35961;SDS011;22044;48.298;10.008;2022-12-01T10:36:02;46.50;;;25.13;;
35961;SDS011;22044;48.298;10.008;2022-12-01T10:38:49;47.63;;;25.60;;
35961;SDS011;22044;48.298;10.008;2022-12-01T10:41:35;44.60;;;24.40;;
35961;SDS011;22044;48.298;10.008;2022-12-01T10:44:22;46.97;;;25.40;;
35961;SDS011;22044;48.298;10.008;2022-12-01T10:47:09;47.40;;;24.83;;
35961;SDS011;22044;48.298;10.008;2022-12-01T10:50:02;47.27;;;25.27;;
35961;SDS011;22044;48.298;10.008;2022-12-01T10:52:48;51.73;;;25.33;;
35961;SDS011;22044;48.298;10.008;2022-12-01T10:55:35;52.70;;;25.60;;
35961;SDS011;22044;48.298;10.008;2022-12-01T10:58:23;47.63;;;26.40;;
35961;SDS011;22044;48.298;10.008;2022-12-01T11:01:14;41.37;;;24.00;;
35961;SDS011;22044;48.298;10.008;2022-12-01T11:04:04;42.83;;;23.50;;
35961;SDS011;22044;48.298;10.008;2022-12-01T11:06:51;39.90;;;23.07;;
35961;SDS011;22044;48.298;10.008;2022-12-01T11:09:38;40.47;;;24.13;;
35961;SDS011;22044;48.298;10.008;2022-12-01T11:12:25;39.57;;;22.60;;
35961;SDS011;22044;48.298;10.008;2022-12-01T11:15:18;44.57;;;25.20;;
35961;SDS011;22044;48.298;10.008;2022-12-01T11:18:19;47.37;;;25.47;;
35961;SDS011;22044;48.298;10.008;2022-12-01T11:21:07;47.37;;;25.53;;
35961;SDS011;22044;48.298;10.008;2022-12-01T11:23:55;50.10;;;27.93;;
35961;SDS011;22044;48.298;10.008;2022-12-01T11:26:41;50.20;;;25.67;;
35961;SDS011;22044;48.298;10.008;2022-12-01T11:29:30;49.53;;;27.27;;
35961;SDS011;22044;48.298;10.008;2022-12-01T11:32:20;51.53;;;27.70;;
35961;SDS011;22044;48.298;10.008;2022-12-01T11:35:13;51.43;;;27.23;;
35961;SDS011;22044;48.298;10.008;2022-12-01T11:38:03;51.00;;;27.47;;
35961;SDS011;22044;48.298;10.008;2022-12-01T11:40:51;48.57;;;26.10;;
35961;SDS011;22044;48.298;10.008;2022-12-01T11:43:38;54.10;;;28.63;;
35961;SDS011;22044;48.298;10.008;2022-12-01T11:46:29;51.40;;;26.27;;
35961;SDS011;22044;48.298;10.008;2022-12-01T11:49:19;49.67;;;26.63;;
35961;SDS011;22044;48.298;10.008;2022-12-01T11:52:15;46.63;;;26.60;;
35961;SDS011;22044;48.298;10.008;2022-12-01T11:55:18;43.93;;;25.00;;
35961;SDS011;22044;48.298;10.008;2022-12-01T11:58:06;47.70;;;25.07;;
35961;SDS011;22044;48.298;10.008;2022-12-01T12:00:53;46.80;;;26.80;;
35961;SDS011;22044;48.298;10.008;2022-12-01T12:03:44;54.43;;;27.63;;
35961;SDS011;22044;48.298;10.008;2022-12-01T12:06:38;43.13;;;25.83;;
35961;SDS011;22044;48.298;10.008;2022-12-01T12:09:40;42.13;;;25.37;;
35961;SDS011;22044;48.298;10.008;2022-12-01T12:12:44;46.43;;;25.57;;
35961;SDS011;22044;48.298;10.008;2022-12-01T12:15:41;41.90;;;24.77;;
35961;SDS011;22044;48.298;10.008;2022-12-01T12:18:37;44.10;;;24.07;;
35961;SDS011;22044;48.298;10.008;2022-12-01T12:21:33;42.87;;;24.43;;
35961;SDS011;22044;48.298;10.008;2022-12-01T12:24:31;38.73;;;22.07;;
35961;SDS011;22044;48.298;10.008;2022-12-01T12:27:30;43.90;;;24.27;;
35961;SDS011;22044;48.298;10.008;2022-12-01T12:30:25;37.87;;;22.50;;
35961;SDS011;22044;48.298;10.008;2022-12-01T12:33:18;38.33;;;22.27;;
35961;SDS011;22044;48.298;10.008;2022-12-01T12:36:23;39.03;;;22.07;;
35961;SDS011;22044;48.298;10.008;2022-12-01T12:39:22;33.00;;;19.67;;
35961;SDS011;22044;48.298;10.008;2022-12-01T12:42:23;37.47;;;22.17;;
35961;SDS011;22044;48.298;10.008;2022-12-01T12:45:16;37.80;;;21.43;;
35961;SDS011;22044;48.298;10.008;2022-12-01T12:48:13;38.53;;;21.97;;
35961;SDS011;22044;48.298;10.008;2022-12-01T12:51:11;35.50;;;22.30;;
35961;SDS011;22044;48.298;10.008;2022-12-01T12:54:04;36.27;;;20.93;;
35961;SDS011;22044;48.298;10.008;2022-12-01T12:57:00;36.77;;;21.57;;
35961;SDS011;22044;48.298;10.008;2022-12-01T12:59:50;35.80;;;21.13;;
35961;SDS011;22044;48.298;10.008;2022-12-01T13:02:42;32.60;;;20.07;;
35961;SDS011;22044;48.298;10.008;2022-12-01T13:05:32;39.23;;;22.53;;
35961;SDS011;22044;48.298;10.008;2022-12-01T13:08:24;37.33;;;22.30;;
35961;SDS011;22044;48.298;10.008;2022-12-01T13:11:17;37.53;;;21.87;;
35961;SDS011;22044;48.298;10.008;2022-12-01T13:14:09;40.37;;;22.73;;
35961;SDS011;22044;48.298;10.008;2022-12-01T13:17:13;35.43;;;21.73;;
35961;SDS011;22044;48.298;10.008;2022-12-01T13:20:02;41.97;;;23.33;;
35961;SDS011;22044;48.298;10.008;2022-12-01T13:22:49;38.17;;;21.77;;
35961;SDS011;22044;48.298;10.008;2022-12-01T13:25:37;37.47;;;22.77;;
35961;SDS011;22044;48.298;10.008;2022-12-01T13:28:28;40.20;;;22.00;;
35961;SDS011;22044;48.298;10.008;2022-12-01T13:31:19;35.43;;;20.27;;
35961;SDS011;22044;48.298;10.008;2022-12-01T13:34:05;38.23;;;21.57;;
35961;SDS011;22044;48.298;10.008;2022-12-01T13:36:52;33.67;;;20.57;;
35961;SDS011;22044;48.298;10.008;2022-12-01T13:39:39;34.27;;;19.67;;
35961;SDS011;22044;48.298;10.008;2022-12-01T13:42:26;34.00;;;20.07;;
35961;SDS011;22044;48.298;10.008;2022-12-01T13:45:16;33.43;;;20.03;;
35961;SDS011;22044;48.298;10.008;2022-12-01T13:48:03;36.10;;;21.57;;
35961;SDS011;22044;48.298;10.008;2022-12-01T13:50:55;34.93;;;20.17;;
35961;SDS011;22044;48.298;10.008;2022-12-01T13:53:52;40.27;;;22.40;;
35961;SDS011;22044;48.298;10.008;2022-12-01T13:56:45;36.07;;;21.87;;
35961;SDS011;22044;48.298;10.008;2022-12-01T14:00:03;35.80;;;20.77;;
35961;SDS011;22044;48.298;10.008;2022-12-01T14:06:25;38.07;;;23.07;;
35961;SDS011;22044;48.298;10.008;2022-12-01T14:09:13;36.70;;;22.40;;
35961;SDS011;22044;48.298;10.008;2022-12-01T14:12:04;36.73;;;22.00;;
35961;SDS011;22044;48.298;10.008;2022-12-01T14:14:59;40.10;;;22.37;;
35961;SDS011;22044;48.298;10.008;2022-12-01T14:17:56;38.47;;;22.43;;
35961;SDS011;22044;48.298;10.008;2022-12-01T14:20:46;39.47;;;21.53;;
35961;SDS011;22044;48.298;10.008;2022-12-01T14:23:33;37.93;;;21.60;;
35961;SDS011;22044;48.298;10.008;2022-12-01T14:26:20;34.57;;;20.70;;
35961;SDS011;22044;48.298;10.008;2022-12-01T14:29:09;36.37;;;21.40;;
35961;SDS011;22044;48.298;10.008;2022-12-01T14:32:20;37.07;;;21.90;;
35961;SDS011;22044;48.298;10.008;2022-12-01T14:35:09;37.73;;;21.50;;
35961;SDS011;22044;48.298;10.008;2022-12-01T14:37:58;41.17;;;22.93;;
35961;SDS011;22044;48.298;10.008;2022-12-01T14:40:44;36.30;;;22.13;;
35961;SDS011;22044;48.298;10.008;2022-12-01T14:43:31;39.33;;;21.47;;
35961;SDS011;22044;48.298;10.008;2022-12-01T14:46:37;36.63;;;21.50;;
35961;SDS011;22044;48.298;10.008;2022-12-01T14:49:28;33.63;;;21.47;;
35961;SDS011;22044;48.298;10.008;2022-12-01T14:52:20;36.90;;;21.67;;
35961;SDS011;22044;48.298;10.008;2022-12-01T14:55:15;38.40;;;22.63;;
35961;SDS011;22044;48.298;10.008;2022-12-01T14:58:04;37.60;;;22.97;;
35961;SDS011;22044;48.298;10.008;2022-12-01T15:00:54;32.70;;;20.93;;
35961;SDS011;22044;48.298;10.008;2022-12-01T15:03:45;40.43;;;23.17;;
35961;SDS011;22044;48.298;10.008;2022-12-01T15:06:33;38.93;;;21.37;;
35961;SDS011;22044;48.298;10.008;2022-12-01T15:09:20;40.80;;;23.03;;
35961;SDS011;22044;48.298;10.008;2022-12-01T15:12:25;36.27;;;22.03;;
35961;SDS011;22044;48.298;10.008;2022-12-01T15:15:13;34.17;;;21.57;;
35961;SDS011;22044;48.298;10.008;2022-12-01T15:18:00;39.83;;;23.90;;
35961;SDS011;22044;48.298;10.008;2022-12-01T15:20:46;40.70;;;22.87;;
35961;SDS011;22044;48.298;10.008;2022-12-01T15:23:34;36.63;;;21.67;;
35961;SDS011;22044;48.298;10.008;2022-12-01T15:26:20;36.50;;;22.43;;
35961;SDS011;22044;48.298;10.008;2022-12-01T15:29:13;35.97;;;22.07;;
35961;SDS011;22044;48.298;10.008;2022-12-01T15:32:04;39.72;;;24.25;;
35961;SDS011;22044;48.298;10.008;2022-12-01T15:34:52;41.33;;;23.40;;
35961;SDS011;22044;48.298;10.008;2022-12-01T15:37:40;41.07;;;22.70;;
35961;SDS011;22044;48.298;10.008;2022-12-01T15:40:28;35.43;;;22.07;;
35961;SDS011;22044;48.298;10.008;2022-12-01T15:43:17;38.50;;;22.93;;
35961;SDS011;22044;48.298;10.008;2022-12-01T15:46:11;38.93;;;23.03;;
35961;SDS011;22044;48.298;10.008;2022-12-01T15:49:04;35.90;;;22.43;;
35961;SDS011;22044;48.298;10.008;2022-12-01T15:51:51;38.17;;;21.80;;
35961;SDS011;22044;48.298;10.008;2022-12-01T15:54:37;39.13;;;23.40;;
35961;SDS011;22044;48.298;10.008;2022-12-01T15:57:23;39.80;;;23.87;;
35961;SDS011;22044;48.298;10.008;2022-12-01T16:00:16;34.50;;;21.87;;
35961;SDS011;22044;48.298;10.008;2022-12-01T16:03:04;40.53;;;23.80;;
35961;SDS011;22044;48.298;10.008;2022-12-01T16:05:50;36.57;;;22.00;;
35961;SDS011;22044;48.298;10.008;2022-12-01T16:08:36;38.33;;;22.73;;
35961;SDS011;22044;48.298;10.008;2022-12-01T16:11:22;38.73;;;22.87;;
35961;SDS011;22044;48.298;10.008;2022-12-01T16:14:18;36.10;;;22.73;;
35961;SDS011;22044;48.298;10.008;2022-12-01T16:17:07;35.90;;;21.73;;
35961;SDS011;22044;48.298;10.008;2022-12-01T16:23:08;35.80;;;21.10;;
35961;SDS011;22044;48.298;10.008;2022-12-01T16:25:55;39.53;;;22.43;;